Time;durP1;ratioP1;P1;durP2;ratioP2;P2;SDS_P1;SDS_P2;PMS_P1;PMS_P2;Temp;Humidity;BMP_temperature;BMP_pressure;BME280_temperature;BME280_humidity;BME280_pressure;Samples;Min_cycle;Max_cycle;Signal;HPM_P1;HPM_P2
2021/01/31 00:01:40;;;;;;;5.28;3.50;;;;;;;;;;5034142;28;20329;-75
2021/01/31 00:04:06;;;;;;;4.65;3.47;;;;;;;;;;5020868;28;20669;-75
2021/01/31 00:06:34;;;;;;;3.67;3.00;;;;;;;;;;5015868;28;20214;-75
2021/01/31 00:09:01;;;;;;;3.60;3.30;;;;;;;;;;5011425;28;20284;-75
2021/01/31 00:11:27;;;;;;;4.30;3.28;;;;;;;;;;5011779;28;20249;-75
2021/01/31 00:13:54;;;;;;;4.32;3.25;;;;;;;;;;5011889;28;20642;-74
2021/01/31 00:16:21;;;;;;;4.50;3.78;;;;;;;;;;5023439;28;20315;-74
2021/01/31 00:18:48;;;;;;;3.80;3.50;;;;;;;;;;5033545;28;20225;-74
2021/01/31 00:21:15;;;;;;;7.20;4.13;;;;;;;;;;5033188;28;20202;-75
2021/01/31 00:23:43;;;;;;;4.03;3.35;;;;;;;;;;5033284;28;20290;-75
2021/01/31 00:26:10;;;;;;;4.32;3.40;;;;;;;;;;5020462;28;20227;-75
2021/01/31 00:28:36;;;;;;;5.60;3.50;;;;;;;;;;5016328;28;20255;-75
2021/01/31 00:31:03;;;;;;;5.00;3.80;;;;;;;;;;5011105;28;20207;-75
2021/01/31 00:33:30;;;;;;;5.20;3.65;;;;;;;;;;5011335;28;20303;-75
2021/01/31 00:35:57;;;;;;;4.35;3.70;;;;;;;;;;5011344;28;20248;-75
2021/01/31 00:38:27;;;;;;;4.53;3.72;;;;;;;;;;5023293;28;20577;-75
2021/01/31 00:40:55;;;;;;;4.80;3.60;;;;;;;;;;5033706;28;20195;-75
2021/01/31 00:43:22;;;;;;;4.07;3.60;;;;;;;;;;5016108;28;20257;-75
2021/01/31 00:45:50;;;;;;;4.60;4.00;;;;;;;;;;5016267;28;20680;-74
2021/01/31 00:48:16;;;;;;;4.30;3.50;;;;;;;;;;5020171;28;20685;-75
2021/01/31 00:50:43;;;;;;;5.07;4.22;;;;;;;;;;5021238;28;20326;-75
2021/01/31 00:53:10;;;;;;;5.90;3.83;;;;;;;;;;5031541;28;20245;-76
2021/01/31 00:55:37;;;;;;;4.65;3.80;;;;;;;;;;5031540;28;20265;-75
2021/01/31 00:58:05;;;;;;;4.53;4.00;;;;;;;;;;5031572;28;20217;-75
2021/01/31 01:00:33;;;;;;;5.25;4.40;;;;;;;;;;5025398;28;20295;-75
2021/01/31 01:03:00;;;;;;;4.05;3.65;;;;;;;;;;5033161;28;20200;-74
2021/01/31 01:05:28;;;;;;;6.72;3.45;;;;;;;;;;5033242;28;20280;-75
2021/01/31 01:07:55;;;;;;;4.05;3.65;;;;;;;;;;4999353;28;20701;-75
2021/01/31 01:10:26;;;;;;;5.07;4.13;;;;;;;;;;5022854;28;20202;-75
2021/01/31 01:12:53;;;;;;;5.22;3.70;;;;;;;;;;5030731;28;20545;-75
2021/01/31 01:15:22;;;;;;;3.90;3.60;;;;;;;;;;5030514;28;20230;-76
2021/01/31 01:17:49;;;;;;;5.25;4.18;;;;;;;;;;5031070;28;20210;-75
2021/01/31 01:20:16;;;;;;;4.65;3.78;;;;;;;;;;5032143;28;20227;-75
2021/01/31 01:22:43;;;;;;;4.45;3.88;;;;;;;;;;5033082;28;20575;-75
2021/01/31 01:25:11;;;;;;;4.53;4.13;;;;;;;;;;5033033;28;20228;-76
2021/01/31 01:27:38;;;;;;;6.43;4.43;;;;;;;;;;5014376;28;20199;-74
2021/01/31 01:30:06;;;;;;;7.00;4.07;;;;;;;;;;5016771;28;20261;-76
2021/01/31 01:32:34;;;;;;;4.97;4.10;;;;;;;;;;4996273;28;20214;-74
2021/01/31 01:35:01;;;;;;;5.90;4.07;;;;;;;;;;5014152;28;20730;-75
2021/01/31 01:37:27;;;;;;;5.32;4.30;;;;;;;;;;5014320;28;20200;-75
2021/01/31 01:39:54;;;;;;;8.23;4.30;;;;;;;;;;5014475;28;20626;-75
2021/01/31 01:42:21;;;;;;;6.30;4.35;;;;;;;;;;5032207;28;20286;-75
2021/01/31 01:44:48;;;;;;;5.82;4.55;;;;;;;;;;5036368;28;20556;-75
2021/01/31 01:47:17;;;;;;;6.60;5.15;;;;;;;;;;5036310;28;20261;-75
2021/01/31 01:49:45;;;;;;;5.40;4.88;;;;;;;;;;5034868;28;20200;-75
2021/01/31 01:52:16;;;;;;;6.07;5.05;;;;;;;;;;5020233;28;20183;-75
2021/01/31 01:54:44;;;;;;;5.90;5.30;;;;;;;;;;5016268;28;20197;-75
2021/01/31 01:57:13;;;;;;;6.28;4.55;;;;;;;;;;5013959;28;20216;-75
2021/01/31 01:59:40;;;;;;;7.50;5.32;;;;;;;;;;5013879;28;20227;-76
2021/01/31 02:02:10;;;;;;;5.50;4.75;;;;;;;;;;5014302;28;20200;-76
2021/01/31 02:04:37;;;;;;;5.32;4.63;;;;;;;;;;5033798;28;20550;-75
2021/01/31 02:07:05;;;;;;;6.43;4.60;;;;;;;;;;5035925;28;20234;-75
2021/01/31 02:09:32;;;;;;;5.30;4.72;;;;;;;;;;5035736;28;20209;-75
2021/01/31 02:12:01;;;;;;;6.55;5.47;;;;;;;;;;5015895;28;20211;-75
2021/01/31 02:14:28;;;;;;;6.78;4.85;;;;;;;;;;5019849;28;20280;-75
2021/01/31 02:16:56;;;;;;;6.65;4.95;;;;;;;;;;5027696;28;20207;-75
2021/01/31 02:19:34;;;;;;;4.82;4.22;;;;;;;;;;5016210;28;20242;-75
2021/01/31 02:22:09;;;;;;;5.75;4.97;;;;;;;;;;5033306;28;20240;-75
2021/01/31 02:24:50;;;;;;;6.18;4.70;;;;;;;;;;5033354;28;20201;-75
2021/01/31 02:27:24;;;;;;;6.75;5.00;;;;;;;;;;5035713;28;20223;-74
2021/01/31 02:30:08;;;;;;;5.72;4.60;;;;;;;;;;5035607;28;20209;-75
2021/01/31 02:32:45;;;;;;;6.20;4.53;;;;;;;;;;5035357;28;20229;-75
2021/01/31 02:35:15;;;;;;;6.78;5.05;;;;;;;;;;5025055;28;20242;-75
2021/01/31 02:37:44;;;;;;;6.10;5.05;;;;;;;;;;5018939;28;20204;-74
2021/01/31 02:40:13;;;;;;;8.57;5.80;;;;;;;;;;5012601;28;20227;-75
2021/01/31 02:42:42;;;;;;;8.02;5.55;;;;;;;;;;4995746;28;20207;-75
2021/01/31 02:45:12;;;;;;;5.80;5.00;;;;;;;;;;4995319;28;20618;-75
2021/01/31 02:47:42;;;;;;;6.85;5.60;;;;;;;;;;5023565;28;20249;-75
2021/01/31 02:50:11;;;;;;;7.10;4.97;;;;;;;;;;5035103;28;20732;-75
2021/01/31 02:52:41;;;;;;;8.15;5.30;;;;;;;;;;5034985;28;20206;-75
2021/01/31 02:55:10;;;;;;;6.80;5.40;;;;;;;;;;5034964;28;20283;-76
2021/01/31 02:57:38;;;;;;;5.75;4.43;;;;;;;;;;5004723;28;20235;-76
2021/01/31 03:00:08;;;;;;;6.85;5.82;;;;;;;;;;5022166;28;20262;-75
2021/01/31 03:02:36;;;;;;;8.13;6.05;;;;;;;;;;5032468;28;20253;-75
2021/01/31 03:05:05;;;;;;;11.95;6.05;;;;;;;;;;5032294;28;20211;-75
2021/01/31 03:07:33;;;;;;;6.50;4.97;;;;;;;;;;5032637;28;20233;-75
2021/01/31 03:10:04;;;;;;;5.88;5.03;;;;;;;;;;5033253;28;20302;-76
2021/01/31 03:12:34;;;;;;;7.70;5.85;;;;;;;;;;5017312;28;20203;-75
2021/01/31 03:15:05;;;;;;;7.68;5.20;;;;;;;;;;5034713;28;20206;-75
2021/01/31 03:17:35;;;;;;;6.40;5.60;;;;;;;;;;5017251;28;20210;-75
2021/01/31 03:20:05;;;;;;;8.52;6.30;;;;;;;;;;5018975;28;20216;-75
2021/01/31 03:22:36;;;;;;;9.90;6.45;;;;;;;;;;5023338;28;20708;-75
2021/01/31 03:25:07;;;;;;;8.15;5.65;;;;;;;;;;5032300;28;20195;-75
2021/01/31 03:27:36;;;;;;;7.43;5.80;;;;;;;;;;5032150;28;20548;-75
2021/01/31 03:30:04;;;;;;;8.32;6.47;;;;;;;;;;5032331;28;20286;-75
2021/01/31 03:32:33;;;;;;;9.90;5.70;;;;;;;;;;5016194;28;20605;-75
2021/01/31 03:35:02;;;;;;;8.05;5.85;;;;;;;;;;5033980;28;20286;-75
2021/01/31 03:37:33;;;;;;;11.50;6.72;;;;;;;;;;5016719;28;20199;-75
2021/01/31 03:40:00;;;;;;;9.55;6.90;;;;;;;;;;5032756;28;20219;-75
2021/01/31 03:42:28;;;;;;;8.77;6.38;;;;;;;;;;5018168;28;20188;-75
2021/01/31 03:44:58;;;;;;;9.45;6.97;;;;;;;;;;5024838;28;20287;-75
2021/01/31 03:47:28;;;;;;;10.40;6.90;;;;;;;;;;5014262;28;20192;-76
2021/01/31 03:49:56;;;;;;;10.90;6.53;;;;;;;;;;5014292;28;20196;-75
2021/01/31 03:52:24;;;;;;;11.43;7.40;;;;;;;;;;5031988;28;20195;-76
2021/01/31 03:54:51;;;;;;;11.65;7.03;;;;;;;;;;5033441;28;20196;-76
2021/01/31 03:57:20;;;;;;;11.43;7.00;;;;;;;;;;5033948;28;20206;-75
2021/01/31 03:59:50;;;;;;;9.00;7.60;;;;;;;;;;5033657;28;20314;-75
2021/01/31 04:02:19;;;;;;;8.90;6.25;;;;;;;;;;5030840;28;20279;-76
2021/01/31 04:04:47;;;;;;;14.95;6.82;;;;;;;;;;5017723;28;20577;-76
2021/01/31 04:07:16;;;;;;;11.70;7.40;;;;;;;;;;5013124;28;20220;-76
2021/01/31 04:09:44;;;;;;;11.93;7.65;;;;;;;;;;5011748;28;20211;-75
2021/01/31 04:12:12;;;;;;;8.45;6.07;;;;;;;;;;5011882;28;20283;-75
2021/01/31 04:14:40;;;;;;;11.23;7.43;;;;;;;;;;4994389;28;20205;-75
2021/01/31 04:17:08;;;;;;;14.13;8.82;;;;;;;;;;5033116;28;20226;-76
2021/01/31 04:19:34;;;;;;;11.50;8.13;;;;;;;;;;5033652;28;20577;-73
2021/01/31 04:22:01;;;;;;;11.65;7.07;;;;;;;;;;5033755;28;20671;-76
2021/01/31 04:24:28;;;;;;;12.07;7.45;;;;;;;;;;5029772;28;20747;-76
2021/01/31 04:26:55;;;;;;;10.88;7.60;;;;;;;;;;5017247;28;20254;-75
2021/01/31 04:29:21;;;;;;;10.95;7.43;;;;;;;;;;5026296;28;20529;-75
2021/01/31 04:31:48;;;;;;;9.32;6.72;;;;;;;;;;5031494;28;20200;-75
2021/01/31 04:34:16;;;;;;;11.63;7.68;;;;;;;;;;5031371;28;20202;-75
2021/01/31 04:36:43;;;;;;;9.68;7.18;;;;;;;;;;5031343;28;20228;-75
2021/01/31 04:39:11;;;;;;;14.77;8.40;;;;;;;;;;5015459;28;20270;-76
2021/01/31 04:41:39;;;;;;;12.50;8.25;;;;;;;;;;5033380;28;20679;-75
2021/01/31 04:44:07;;;;;;;13.88;8.80;;;;;;;;;;5033537;28;20196;-75
2021/01/31 04:46:39;;;;;;;11.82;8.02;;;;;;;;;;5029069;28;20220;-75
2021/01/31 04:49:11;;;;;;;12.77;8.50;;;;;;;;;;5017355;28;20283;-75
2021/01/31 04:51:47;;;;;;;10.90;8.27;;;;;;;;;;5027587;28;20314;-75
2021/01/31 04:54:26;;;;;;;12.27;8.43;;;;;;;;;;5030784;28;20202;-75
2021/01/31 04:56:56;;;;;;;13.50;7.95;;;;;;;;;;5031142;28;20211;-75
2021/01/31 04:59:27;;;;;;;12.57;8.43;;;;;;;;;;5031230;28;20314;-76
2021/01/31 05:01:55;;;;;;;11.25;8.55;;;;;;;;;;5033307;28;20588;-75
2021/01/31 05:04:24;;;;;;;12.15;7.90;;;;;;;;;;5033256;28;20219;-75
2021/01/31 05:06:52;;;;;;;11.75;8.00;;;;;;;;;;5032837;28;20272;-74
2021/01/31 05:09:20;;;;;;;12.02;7.82;;;;;;;;;;5026712;28;20641;-74
2021/01/31 05:11:52;;;;;;;14.88;10.18;;;;;;;;;;5020774;28;20283;-75
2021/01/31 05:14:21;;;;;;;13.23;8.73;;;;;;;;;;5034304;28;20246;-75
2021/01/31 05:16:49;;;;;;;14.23;8.35;;;;;;;;;;5034387;28;20220;-74
2021/01/31 05:19:17;;;;;;;10.93;8.25;;;;;;;;;;5034437;28;20280;-74
2021/01/31 05:21:43;;;;;;;13.80;9.05;;;;;;;;;;5035260;28;20196;-74
2021/01/31 05:24:14;;;;;;;13.85;9.18;;;;;;;;;;5036811;28;20633;-75
2021/01/31 05:26:42;;;;;;;11.80;7.85;;;;;;;;;;5036751;28;20265;-74
2021/01/31 05:29:13;;;;;;;13.93;8.90;;;;;;;;;;5036780;28;20253;-75
2021/01/31 05:31:41;;;;;;;13.93;7.97;;;;;;;;;;5025410;28;20196;-74
2021/01/31 05:34:10;;;;;;;15.50;8.88;;;;;;;;;;5020182;28;20219;-75
2021/01/31 05:36:37;;;;;;;12.98;9.20;;;;;;;;;;5013840;28;20544;-75
2021/01/31 05:39:04;;;;;;;14.00;9.77;;;;;;;;;;5014240;28;20230;-75
2021/01/31 05:41:39;;;;;;;12.65;7.88;;;;;;;;;;5014518;28;20553;-74
2021/01/31 05:44:07;;;;;;;12.23;8.65;;;;;;;;;;5024841;28;20196;-74
2021/01/31 05:46:38;;;;;;;11.60;8.27;;;;;;;;;;5019027;28;20346;-74
2021/01/31 05:49:05;;;;;;;15.80;9.35;;;;;;;;;;5036374;28;20702;-75
2021/01/31 05:51:33;;;;;;;13.43;9.30;;;;;;;;;;5036301;28;20248;-75
2021/01/31 05:54:15;;;;;;;12.80;9.60;;;;;;;;;;5023193;28;20238;-75
2021/01/31 05:56:43;;;;;;;13.68;8.68;;;;;;;;;;5008628;28;20823;-75
2021/01/31 05:59:11;;;;;;;14.82;9.00;;;;;;;;;;5033925;28;20810;-74
2021/01/31 06:01:50;;;;;;;14.50;8.27;;;;;;;;;;5033943;28;20283;-75
2021/01/31 06:04:17;;;;;;;14.52;9.25;;;;;;;;;;5016371;28;20202;-74
2021/01/31 06:06:45;;;;;;;11.35;8.45;;;;;;;;;;5017200;28;20373;-75
2021/01/31 06:09:13;;;;;;;13.63;8.52;;;;;;;;;;5018319;28;20214;-75
2021/01/31 06:11:40;;;;;;;11.63;8.60;;;;;;;;;;5034738;28;20188;-75
2021/01/31 06:14:10;;;;;;;16.38;8.48;;;;;;;;;;5019681;28;20200;-75
2021/01/31 06:16:38;;;;;;;12.23;7.90;;;;;;;;;;4999103;28;20209;-75
2021/01/31 06:19:07;;;;;;;15.20;8.40;;;;;;;;;;5010839;28;20211;-75
2021/01/31 06:21:37;;;;;;;12.63;8.25;;;;;;;;;;5032455;28;20198;-75
2021/01/31 06:24:04;;;;;;;13.82;9.23;;;;;;;;;;5016236;28;20290;-75
2021/01/31 06:26:32;;;;;;;12.00;8.10;;;;;;;;;;5034691;28;20216;-76
2021/01/31 06:29:01;;;;;;;18.13;9.93;;;;;;;;;;5035763;28;20676;-75
2021/01/31 06:31:36;;;;;;;15.18;9.20;;;;;;;;;;5033801;28;20203;-75
2021/01/31 06:34:02;;;;;;;13.10;9.25;;;;;;;;;;5026583;28;20189;-75
2021/01/31 06:36:35;;;;;;;13.73;8.98;;;;;;;;;;5018890;28;20211;-76
2021/01/31 06:39:09;;;;;;;16.02;9.00;;;;;;;;;;5026914;28;20241;-75
2021/01/31 06:41:45;;;;;;;14.23;8.75;;;;;;;;;;5032974;28;20218;-75
2021/01/31 06:44:15;;;;;;;14.90;9.02;;;;;;;;;;5032510;28;20598;-77
2021/01/31 06:46:46;;;;;;;13.90;9.20;;;;;;;;;;5032143;28;20222;-75
2021/01/31 06:49:17;;;;;;;14.73;8.73;;;;;;;;;;5020119;28;20192;-77
2021/01/31 06:51:59;;;;;;;13.55;8.98;;;;;;;;;;5015363;28;20204;-75
2021/01/31 06:54:40;;;;;;;14.68;8.73;;;;;;;;;;5014468;28;20202;-74
2021/01/31 06:57:17;;;;;;;15.23;9.93;;;;;;;;;;5016137;28;20615;-75
2021/01/31 06:59:57;;;;;;;14.50;8.75;;;;;;;;;;5018883;28;20230;-75
2021/01/31 07:02:39;;;;;;;15.20;9.57;;;;;;;;;;5012255;28;20247;-75
2021/01/31 07:05:09;;;;;;;12.40;9.13;;;;;;;;;;5012573;28;20539;-75
2021/01/31 07:07:55;;;;;;;14.80;9.32;;;;;;;;;;5013592;28;20230;-75
2021/01/31 07:10:29;;;;;;;15.20;9.70;;;;;;;;;;5033663;28;20214;-75
2021/01/31 07:13:04;;;;;;;14.60;10.18;;;;;;;;;;5017390;28;20286;-75
2021/01/31 07:15:36;;;;;;;17.52;11.93;;;;;;;;;;5034527;28;20215;-75
2021/01/31 07:18:08;;;;;;;18.00;10.35;;;;;;;;;;5034494;28;20714;-75
2021/01/31 07:20:38;;;;;;;16.20;9.90;;;;;;;;;;5019717;28;20226;-75
2021/01/31 07:23:06;;;;;;;17.58;11.05;;;;;;;;;;5015863;28;20201;-74
2021/01/31 07:25:35;;;;;;;16.17;10.93;;;;;;;;;;4995128;28;20686;-75
2021/01/31 07:28:06;;;;;;;17.95;10.43;;;;;;;;;;5018222;28;20560;-75
2021/01/31 07:30:36;;;;;;;14.75;9.07;;;;;;;;;;5032097;28;20571;-75
2021/01/31 07:33:08;;;;;;;17.70;10.85;;;;;;;;;;5033275;28;20253;-74
2021/01/31 07:35:37;;;;;;;18.65;10.90;;;;;;;;;;5033921;28;20310;-76
2021/01/31 07:38:08;;;;;;;14.40;10.20;;;;;;;;;;5016826;28;20204;-75
2021/01/31 07:40:35;;;;;;;14.57;9.60;;;;;;;;;;5016843;28;20223;-75
2021/01/31 07:43:02;;;;;;;15.48;9.45;;;;;;;;;;5018347;28;20206;-75
2021/01/31 07:45:29;;;;;;;16.90;10.07;;;;;;;;;;4998165;28;20220;-75
2021/01/31 07:48:11;;;;;;;12.93;9.23;;;;;;;;;;5024429;28;20278;-77
2021/01/31 07:50:40;;;;;;;13.43;8.82;;;;;;;;;;5011061;28;20192;-76
2021/01/31 07:53:08;;;;;;;13.80;10.07;;;;;;;;;;5003009;28;20237;-74
2021/01/31 07:55:36;;;;;;;15.57;9.68;;;;;;;;;;5032995;28;20588;-75
2021/01/31 07:58:06;;;;;;;17.58;10.10;;;;;;;;;;5033922;28;20287;-75
2021/01/31 08:00:34;;;;;;;14.93;9.45;;;;;;;;;;5033696;28;20726;-75
2021/01/31 08:03:01;;;;;;;14.68;9.45;;;;;;;;;;5016436;28;20767;-76
2021/01/31 08:05:43;;;;;;;14.65;9.00;;;;;;;;;;5017655;28;20662;-74
2021/01/31 08:08:11;;;;;;;17.13;10.77;;;;;;;;;;5023684;28;20606;-75
2021/01/31 08:10:39;;;;;;;15.55;9.15;;;;;;;;;;5031645;28;20202;-75
2021/01/31 08:13:10;;;;;;;16.77;8.90;;;;;;;;;;5031449;28;20196;-74
2021/01/31 08:15:38;;;;;;;13.52;9.00;;;;;;;;;;5014225;28;20220;-75
2021/01/31 08:18:09;;;;;;;16.92;10.10;;;;;;;;;;5033004;28;20200;-75
2021/01/31 08:20:41;;;;;;;15.82;10.57;;;;;;;;;;5016332;28;20266;-77
2021/01/31 08:23:22;;;;;;;13.35;9.00;;;;;;;;;;5033695;28;20218;-75
2021/01/31 08:25:58;;;;;;;15.38;10.43;;;;;;;;;;5014652;28;20265;-75
2021/01/31 08:28:26;;;;;;;14.90;9.70;;;;;;;;;;4999907;28;20196;-74
2021/01/31 08:31:08;;;;;;;16.08;10.43;;;;;;;;;;5009701;28;20591;-75
2021/01/31 08:33:35;;;;;;;13.15;8.60;;;;;;;;;;5030433;28;20196;-75
2021/01/31 08:36:03;;;;;;;14.23;9.00;;;;;;;;;;5031105;28;20727;-75
2021/01/31 08:38:39;;;;;;;17.63;10.88;;;;;;;;;;5013923;28;20203;-74
2021/01/31 08:41:12;;;;;;;13.68;9.27;;;;;;;;;;5016015;28;20234;-75
2021/01/31 08:43:40;;;;;;;12.00;8.50;;;;;;;;;;5035204;28;20721;-74
2021/01/31 08:46:09;;;;;;;14.05;9.63;;;;;;;;;;5037491;28;20238;-74
2021/01/31 08:48:36;;;;;;;17.33;11.13;;;;;;;;;;5011702;28;20203;-75
2021/01/31 08:51:05;;;;;;;15.77;10.35;;;;;;;;;;5003827;28;20250;-75
2021/01/31 08:53:33;;;;;;;14.45;9.82;;;;;;;;;;5034551;28;20196;-75
2021/01/31 08:56:12;;;;;;;15.27;10.43;;;;;;;;;;5034902;28;20640;-75
2021/01/31 08:58:39;;;;;;;14.60;10.35;;;;;;;;;;5035078;28;20196;-75
2021/01/31 09:01:06;;;;;;;13.73;9.88;;;;;;;;;;5035571;28;20219;-76
2021/01/31 09:03:34;;;;;;;13.80;10.32;;;;;;;;;;5037304;28;20192;-75
2021/01/31 09:06:01;;;;;;;14.40;9.32;;;;;;;;;;5019741;28;20216;-75
2021/01/31 09:08:27;;;;;;;15.70;10.10;;;;;;;;;;5000377;28;20287;-74
2021/01/31 09:10:54;;;;;;;14.60;10.30;;;;;;;;;;4986603;28;20674;-76
2021/01/31 09:13:28;;;;;;;15.73;10.23;;;;;;;;;;4982766;28;20201;-75
2021/01/31 09:15:56;;;;;;;18.17;11.40;;;;;;;;;;4994639;28;20252;-74
2021/01/31 09:18:25;;;;;;;14.60;10.10;;;;;;;;;;4995516;28;20263;-75
2021/01/31 09:20:52;;;;;;;14.95;10.18;;;;;;;;;;4993910;28;20231;-75
2021/01/31 09:23:21;;;;;;;13.27;9.18;;;;;;;;;;4994733;28;20215;-75
2021/01/31 09:25:48;;;;;;;12.30;8.25;;;;;;;;;;4997389;28;20259;-74
2021/01/31 09:28:19;;;;;;;15.68;9.75;;;;;;;;;;4997214;28;20700;-75
2021/01/31 09:30:47;;;;;;;14.15;9.50;;;;;;;;;;4997595;28;20201;-76
2021/01/31 09:33:20;;;;;;;13.50;9.40;;;;;;;;;;4984652;28;20236;-74
2021/01/31 09:35:47;;;;;;;12.15;8.60;;;;;;;;;;4980878;28;20220;-75
2021/01/31 09:38:17;;;;;;;12.95;8.90;;;;;;;;;;4974931;28;20200;-74
2021/01/31 09:40:45;;;;;;;13.57;8.88;;;;;;;;;;4975346;28;20320;-75
2021/01/31 09:43:15;;;;;;;17.10;9.68;;;;;;;;;;4975546;28;20636;-75
2021/01/31 09:45:45;;;;;;;14.13;9.68;;;;;;;;;;4986861;28;20315;-75
2021/01/31 09:48:14;;;;;;;13.63;8.63;;;;;;;;;;4996107;28;20292;-74
2021/01/31 09:50:45;;;;;;;13.43;9.35;;;;;;;;;;4996991;28;20207;-75
2021/01/31 09:53:18;;;;;;;12.40;9.30;;;;;;;;;;4996970;28;20201;-75
2021/01/31 09:55:46;;;;;;;13.10;8.32;;;;;;;;;;4981115;28;20227;-74
2021/01/31 09:58:18;;;;;;;13.50;8.70;;;;;;;;;;4983898;28;20237;-74
2021/01/31 10:00:45;;;;;;;13.15;8.80;;;;;;;;;;4994817;28;20259;-75
2021/01/31 10:03:18;;;;;;;13.40;9.40;;;;;;;;;;4994939;28;20216;-75
2021/01/31 10:05:45;;;;;;;12.25;7.82;;;;;;;;;;4994712;28;20223;-78
2021/01/31 10:08:14;;;;;;;10.98;8.52;;;;;;;;;;5022700;28;20296;-76
2021/01/31 10:10:42;;;;;;;13.50;8.75;;;;;;;;;;5035912;28;20256;-77
2021/01/31 10:13:24;;;;;;;13.05;9.07;;;;;;;;;;5018527;28;20198;-76
2021/01/31 10:15:52;;;;;;;13.15;8.80;;;;;;;;;;5018870;28;20313;-74
2021/01/31 10:18:28;;;;;;;11.05;7.80;;;;;;;;;;5020008;28;20214;-77
2021/01/31 10:21:09;;;;;;;13.05;8.35;;;;;;;;;;5018873;28;20476;-75
2021/01/31 10:23:36;;;;;;;10.07;7.45;;;;;;;;;;5006409;28;20207;-75
2021/01/31 10:26:03;;;;;;;11.10;7.78;;;;;;;;;;5018920;28;20273;-74
2021/01/31 10:28:32;;;;;;;11.43;7.90;;;;;;;;;;5025035;28;20272;-74
2021/01/31 10:30:59;;;;;;;10.05;7.30;;;;;;;;;;5018314;28;20200;-75
2021/01/31 10:33:41;;;;;;;8.98;6.97;;;;;;;;;;5021686;28;20195;-74
2021/01/31 10:36:17;;;;;;;8.23;6.18;;;;;;;;;;5002446;28;20282;-75
2021/01/31 10:38:44;;;;;;;9.32;7.10;;;;;;;;;;5029773;28;20289;-74
2021/01/31 10:41:11;;;;;;;8.10;6.53;;;;;;;;;;5011317;28;20223;-74
2021/01/31 10:43:38;;;;;;;8.48;6.13;;;;;;;;;;5034408;28;20712;-75
2021/01/31 10:46:05;;;;;;;8.80;6.57;;;;;;;;;;5019134;28;20218;-74
2021/01/31 10:48:32;;;;;;;8.35;6.45;;;;;;;;;;5026962;28;20287;-74
2021/01/31 10:50:59;;;;;;;9.35;6.53;;;;;;;;;;5025138;28;20198;-74
2021/01/31 10:53:26;;;;;;;9.35;7.53;;;;;;;;;;5019123;28;20218;-75
2021/01/31 10:55:53;;;;;;;8.90;6.65;;;;;;;;;;5023439;28;20300;-75
2021/01/31 10:58:20;;;;;;;12.35;7.90;;;;;;;;;;5019233;28;20617;-74
2021/01/31 11:00:47;;;;;;;9.82;7.22;;;;;;;;;;5022413;28;20267;-74
2021/01/31 11:03:14;;;;;;;8.95;6.63;;;;;;;;;;5026786;28;20191;-74
2021/01/31 11:05:40;;;;;;;7.32;6.50;;;;;;;;;;5033109;28;20595;-74
2021/01/31 11:08:07;;;;;;;7.68;6.07;;;;;;;;;;5034618;28;20223;-75
2021/01/31 11:10:35;;;;;;;7.70;6.50;;;;;;;;;;5034745;28;20206;-74
2021/01/31 11:13:02;;;;;;;7.28;6.07;;;;;;;;;;5031954;28;20700;-75
2021/01/31 11:15:29;;;;;;;8.65;5.75;;;;;;;;;;5017346;28;20224;-75
2021/01/31 11:17:55;;;;;;;6.57;5.13;;;;;;;;;;5023064;28;20203;-74
2021/01/31 11:20:22;;;;;;;7.95;5.78;;;;;;;;;;5012987;28;20609;-75
2021/01/31 11:22:49;;;;;;;5.70;4.72;;;;;;;;;;5016113;28;20188;-73
2021/01/31 11:25:16;;;;;;;7.32;5.93;;;;;;;;;;5020557;28;20303;-75
2021/01/31 11:27:44;;;;;;;7.55;5.10;;;;;;;;;;5029955;28;20291;-75
2021/01/31 11:30:14;;;;;;;6.90;5.50;;;;;;;;;;5028901;28;20199;-74
2021/01/31 11:32:41;;;;;;;7.97;6.05;;;;;;;;;;5029521;28;20306;-75
2021/01/31 11:35:08;;;;;;;7.57;5.55;;;;;;;;;;5014571;28;20717;-74
2021/01/31 11:37:35;;;;;;;7.05;5.63;;;;;;;;;;5017201;28;20663;-74
2021/01/31 11:40:01;;;;;;;6.80;5.53;;;;;;;;;;5017915;28;20220;-72
2021/01/31 11:42:30;;;;;;;8.43;5.53;;;;;;;;;;5020841;28;20202;-75
2021/01/31 11:44:58;;;;;;;7.72;5.35;;;;;;;;;;5027304;28;20218;-75
2021/01/31 11:47:24;;;;;;;6.50;5.03;;;;;;;;;;5014726;28;20199;-74
2021/01/31 11:49:53;;;;;;;8.25;5.88;;;;;;;;;;5032942;28;20679;-74
2021/01/31 11:52:20;;;;;;;6.18;5.00;;;;;;;;;;5023807;28;20193;-74
2021/01/31 11:54:47;;;;;;;8.95;5.70;;;;;;;;;;5024227;28;20188;-74
2021/01/31 11:57:14;;;;;;;6.85;6.13;;;;;;;;;;5030041;28;20294;-74
2021/01/31 11:59:41;;;;;;;7.03;5.18;;;;;;;;;;5017822;28;20297;-74
2021/01/31 12:02:09;;;;;;;9.05;5.90;;;;;;;;;;5022987;28;20298;-74
2021/01/31 12:04:35;;;;;;;8.50;5.90;;;;;;;;;;5002199;28;20283;-74
2021/01/31 12:07:02;;;;;;;6.70;5.15;;;;;;;;;;5027114;28;20311;-74
2021/01/31 12:09:29;;;;;;;6.50;4.88;;;;;;;;;;5015167;28;20191;-74
2021/01/31 12:11:56;;;;;;;7.53;5.13;;;;;;;;;;5032745;28;20652;-74
2021/01/31 12:14:22;;;;;;;7.72;5.97;;;;;;;;;;5033781;28;20623;-74
2021/01/31 12:16:49;;;;;;;6.32;4.90;;;;;;;;;;5033581;28;20715;-75
2021/01/31 12:19:17;;;;;;;5.85;4.50;;;;;;;;;;5032834;28;20278;-74
2021/01/31 12:21:44;;;;;;;6.32;5.50;;;;;;;;;;5017096;28;20290;-73
2021/01/31 12:24:11;;;;;;;6.78;5.15;;;;;;;;;;5023101;28;20198;-74
2021/01/31 12:26:37;;;;;;;8.18;5.35;;;;;;;;;;5031502;28;20302;-75
2021/01/31 12:29:05;;;;;;;7.93;5.35;;;;;;;;;;5031263;28;20191;-73
2021/01/31 12:31:32;;;;;;;7.40;5.00;;;;;;;;;;5031538;28;20256;-74
2021/01/31 12:33:58;;;;;;;6.57;4.72;;;;;;;;;;5032589;28;20195;-74
2021/01/31 12:36:26;;;;;;;6.95;4.70;;;;;;;;;;5033298;28;20323;-74
2021/01/31 12:38:53;;;;;;;6.47;4.78;;;;;;;;;;5032843;28;20210;-74
2021/01/31 12:41:20;;;;;;;7.25;5.40;;;;;;;;;;5033472;28;20655;-73
2021/01/31 12:43:48;;;;;;;8.40;6.15;;;;;;;;;;5019065;28;20222;-74
2021/01/31 12:46:14;;;;;;;8.30;6.25;;;;;;;;;;5021299;28;20212;-72
2021/01/31 12:48:41;;;;;;;8.70;6.57;;;;;;;;;;5031298;28;20202;-74
2021/01/31 12:51:08;;;;;;;10.15;6.05;;;;;;;;;;5030891;28;20641;-75
2021/01/31 12:53:36;;;;;;;9.88;6.00;;;;;;;;;;5031300;28;20298;-74
2021/01/31 12:56:02;;;;;;;9.73;6.32;;;;;;;;;;5032221;28;20257;-74
2021/01/31 12:58:29;;;;;;;11.73;6.32;;;;;;;;;;5033277;28;20227;-74
2021/01/31 13:01:01;;;;;;;9.23;6.90;;;;;;;;;;5032877;28;20310;-75
2021/01/31 13:03:28;;;;;;;8.68;6.30;;;;;;;;;;5033145;28;20223;-75
2021/01/31 13:05:55;;;;;;;8.70;6.80;;;;;;;;;;5020202;28;20220;-75
2021/01/31 13:08:21;;;;;;;10.13;6.63;;;;;;;;;;5015361;28;20217;-74
2021/01/31 13:10:49;;;;;;;9.32;7.18;;;;;;;;;;5010662;28;20299;-74
2021/01/31 13:13:16;;;;;;;8.98;6.57;;;;;;;;;;5010835;28;20224;-74
2021/01/31 13:15:43;;;;;;;8.60;6.95;;;;;;;;;;5011036;28;20225;-75
2021/01/31 13:18:10;;;;;;;11.30;9.07;;;;;;;;;;5002586;28;20203;-75
2021/01/31 13:20:37;;;;;;;7.85;6.25;;;;;;;;;;5016917;28;20246;-75
2021/01/31 13:23:05;;;;;;;9.90;7.47;;;;;;;;;;5024789;28;20245;-75
2021/01/31 13:25:31;;;;;;;9.27;6.53;;;;;;;;;;5030308;28;20214;-76
2021/01/31 13:28:00;;;;;;;9.65;7.35;;;;;;;;;;5030678;28;20210;-75
2021/01/31 13:30:27;;;;;;;9.40;6.53;;;;;;;;;;5033782;28;20566;-74
2021/01/31 13:32:54;;;;;;;9.40;7.13;;;;;;;;;;5035916;28;20253;-75
2021/01/31 13:35:23;;;;;;;11.15;7.00;;;;;;;;;;5036614;28;20215;-75
2021/01/31 13:37:50;;;;;;;8.80;7.20;;;;;;;;;;5019229;28;20294;-75
2021/01/31 13:40:17;;;;;;;9.32;6.70;;;;;;;;;;5035822;28;20314;-74
2021/01/31 13:42:44;;;;;;;9.10;7.18;;;;;;;;;;5002983;28;20203;-75
2021/01/31 13:45:13;;;;;;;9.80;7.15;;;;;;;;;;5026417;28;20196;-75
2021/01/31 13:47:40;;;;;;;13.90;8.07;;;;;;;;;;5016563;28;20196;-74
2021/01/31 13:50:08;;;;;;;9.88;6.75;;;;;;;;;;5016701;28;20238;-74
2021/01/31 13:52:35;;;;;;;12.45;8.40;;;;;;;;;;5034437;28;20329;-74
2021/01/31 13:55:01;;;;;;;11.25;7.80;;;;;;;;;;5034943;28;20645;-74
2021/01/31 13:57:28;;;;;;;12.48;8.20;;;;;;;;;;5036054;28;20290;-75
2021/01/31 13:59:55;;;;;;;11.65;9.00;;;;;;;;;;5035877;28;20251;-74
2021/01/31 14:02:23;;;;;;;8.85;7.43;;;;;;;;;;5036458;28;20736;-75
2021/01/31 14:04:50;;;;;;;13.15;8.07;;;;;;;;;;5020703;28;20207;-75
2021/01/31 14:07:17;;;;;;;13.02;8.45;;;;;;;;;;5017129;28;21632;-76
2021/01/31 14:09:43;;;;;;;10.05;7.57;;;;;;;;;;5013854;28;20251;-74
2021/01/31 14:12:10;;;;;;;12.30;8.32;;;;;;;;;;5013937;28;20283;-77
2021/01/31 14:14:37;;;;;;;12.02;7.55;;;;;;;;;;5013760;28;20699;-74
2021/01/31 14:17:04;;;;;;;11.80;8.30;;;;;;;;;;5028439;28;20255;-74
2021/01/31 14:19:32;;;;;;;12.52;8.60;;;;;;;;;;5035742;28;20199;-74
2021/01/31 14:21:59;;;;;;;13.27;8.80;;;;;;;;;;5035745;28;20200;-75
2021/01/31 14:24:26;;;;;;;14.52;9.00;;;;;;;;;;5035500;28;20199;-75
2021/01/31 14:26:53;;;;;;;13.50;8.70;;;;;;;;;;5020879;28;20293;-75
2021/01/31 14:29:20;;;;;;;12.85;8.50;;;;;;;;;;5022510;28;20199;-74
2021/01/31 14:31:47;;;;;;;15.30;8.30;;;;;;;;;;5033728;28;20249;-74
2021/01/31 14:34:14;;;;;;;11.30;7.22;;;;;;;;;;5033301;28;20216;-74
2021/01/31 14:36:41;;;;;;;10.40;7.38;;;;;;;;;;5033545;28;20302;-75
2021/01/31 14:39:08;;;;;;;10.82;7.50;;;;;;;;;;5034261;28;20552;-75
2021/01/31 14:41:35;;;;;;;8.93;7.07;;;;;;;;;;5034209;28;20314;-75
2021/01/31 14:44:02;;;;;;;9.50;7.13;;;;;;;;;;5035095;28;20226;-74
2021/01/31 14:46:28;;;;;;;10.07;7.93;;;;;;;;;;5035185;28;20302;-75